Portland, Oregon
Traffic Map
Current Weather Conditions
Portland, Oregon
Clear
Clear
54°
Feels Like: 54°
Wind Chill: 54° Ceiling: Unl
Heat Index: 54° Visibility: 10mi
Dew Point: 48° Wind: 0mph
Humidity: 80% Direction: ° ()
Pressure: 29.98in Gusts: 0mph
Raw Report DataKPDX 261153Z 00000KT 10SM CLR 12/09 A2998 RMK AO2 SLP148 T01220089 10200 20122 56006
Traffic Incident Summary
Active as of:
Severity:
Category:
InformationThere was an issue retrieving the traffic information for this location. Please try a different location or try again shortly.
Advertisements